createdAt,value
2023-02-05T00:00:39.735Z,2.69
2023-02-05T00:03:06.412Z,2.73
2023-02-05T00:05:33.244Z,2.69
2023-02-05T00:08:00.037Z,2.63
2023-02-05T00:10:26.598Z,2.36
2023-02-05T00:12:53.265Z,2.40
2023-02-05T00:15:19.976Z,2.33
2023-02-05T00:17:46.568Z,2.54
2023-02-05T00:20:13.166Z,2.61
2023-02-05T00:22:39.820Z,2.66
2023-02-05T00:25:06.588Z,2.69
2023-02-05T00:27:33.815Z,2.67
2023-02-05T00:30:00.400Z,2.71
2023-02-05T00:32:26.988Z,2.73
2023-02-05T00:34:53.541Z,2.79
2023-02-05T00:37:20.132Z,2.70
2023-02-05T00:39:46.688Z,2.72
2023-02-05T00:42:13.281Z,2.69
2023-02-05T00:44:39.868Z,2.69
2023-02-05T00:47:06.472Z,2.69
2023-02-05T00:49:33.194Z,2.72
2023-02-05T00:51:59.789Z,2.67
2023-02-05T00:54:26.394Z,2.51
2023-02-05T00:56:52.955Z,2.54
2023-02-05T00:59:19.558Z,2.37
2023-02-05T01:01:46.205Z,2.37
2023-02-05T01:04:12.918Z,2.34
2023-02-05T01:06:39.533Z,2.49
2023-02-05T01:09:06.184Z,2.59
2023-02-05T01:11:33.027Z,2.60
2023-02-05T01:13:59.595Z,2.62
2023-02-05T01:16:26.320Z,2.61
2023-02-05T01:18:56.308Z,2.54
2023-02-05T01:21:24.995Z,2.40
2023-02-05T01:23:52.261Z,2.17
2023-02-05T01:26:18.930Z,2.29
2023-02-05T01:28:45.515Z,2.43
2023-02-05T01:31:12.309Z,2.53
2023-02-05T01:33:38.936Z,2.52
2023-02-05T01:36:05.945Z,2.44
2023-02-05T01:38:32.510Z,2.46
2023-02-05T01:41:00.080Z,2.48
2023-02-05T01:43:27.284Z,2.46
2023-02-05T01:46:05.966Z,2.51
2023-02-05T01:48:42.278Z,2.47
2023-02-05T01:51:13.952Z,2.46
2023-02-05T01:53:41.864Z,2.49
2023-02-05T01:56:13.120Z,2.49
2023-02-05T01:58:47.410Z,2.52
2023-02-05T02:01:14.261Z,2.49
2023-02-05T02:03:41.344Z,2.45
2023-02-05T02:06:08.665Z,2.20
2023-02-05T02:08:35.284Z,1.91
2023-02-05T02:11:06.040Z,1.90
2023-02-05T02:13:35.492Z,2.07
2023-02-05T02:16:03.773Z,1.97
2023-02-05T02:18:32.929Z,2.08
2023-02-05T02:21:14.452Z,2.15
2023-02-05T02:23:53.119Z,2.08
2023-02-05T02:26:36.549Z,2.05
2023-02-05T02:29:04.066Z,2.29
2023-02-05T02:32:06.760Z,2.16
2023-02-05T02:34:41.609Z,2.00
2023-02-05T02:37:30.710Z,1.95
2023-02-05T02:40:10.159Z,2.10
2023-02-05T02:42:43.814Z,2.20
2023-02-05T02:45:14.558Z,2.18
2023-02-05T02:47:48.101Z,2.24
2023-02-05T02:50:21.258Z,2.22
2023-02-05T02:52:49.394Z,2.44
2023-02-05T02:55:19.616Z,2.31
2023-02-05T02:57:49.086Z,2.35
2023-02-05T03:00:20.309Z,2.34
2023-02-05T03:02:49.133Z,2.29
2023-02-05T03:05:20.875Z,2.27
2023-02-05T03:07:59.621Z,2.00
2023-02-05T03:10:44.987Z,2.17
2023-02-05T03:13:12.713Z,2.25
2023-02-05T03:15:43.275Z,2.22
2023-02-05T03:18:10.930Z,2.23
2023-02-05T03:20:52.008Z,2.21
2023-02-05T03:23:19.114Z,2.07
2023-02-05T03:25:45.889Z,2.11
2023-02-05T03:28:13.673Z,2.12
2023-02-05T03:30:52.502Z,2.13
2023-02-05T03:33:30.614Z,2.09
2023-02-05T03:36:06.276Z,2.05
2023-02-05T03:38:48.044Z,2.06
2023-02-05T03:41:48.344Z,2.03
2023-02-05T03:44:41.104Z,2.08
2023-02-05T03:47:13.749Z,2.08
2023-02-05T03:50:07.639Z,2.01
2023-02-05T03:52:38.373Z,1.95
2023-02-05T03:55:31.376Z,1.85
2023-02-05T03:58:08.612Z,1.72
2023-02-05T04:00:35.733Z,1.78
2023-02-05T04:03:02.305Z,1.75
2023-02-05T04:05:28.990Z,1.76
2023-02-05T04:07:55.613Z,1.70
2023-02-05T04:10:22.169Z,1.48
2023-02-05T04:12:48.793Z,1.48
2023-02-05T04:15:15.527Z,1.46
2023-02-05T04:17:42.135Z,1.36
2023-02-05T04:20:09.942Z,1.10
2023-02-05T04:22:36.493Z,0.88
2023-02-05T04:25:03.341Z,0.85
2023-02-05T04:27:29.926Z,0.62
2023-02-05T04:29:56.504Z,0.32
2023-02-05T04:32:23.093Z,0.48
2023-02-05T04:34:49.731Z,0.59
2023-02-05T04:37:16.346Z,0.79
2023-02-05T04:39:42.929Z,0.83
2023-02-05T04:42:09.572Z,0.95
2023-02-05T04:44:36.215Z,0.91
2023-02-05T04:47:02.824Z,0.98
2023-02-05T04:49:31.632Z,0.99
2023-02-05T04:51:58.213Z,0.80
2023-02-05T04:54:24.927Z,0.61
2023-02-05T04:56:51.513Z,0.64
2023-02-05T04:59:18.144Z,0.60
2023-02-05T05:01:44.713Z,0.41
2023-02-05T05:04:11.359Z,0.05
2023-02-05T05:06:37.924Z,0.29
2023-02-05T05:09:04.520Z,-0.10
2023-02-05T05:11:31.099Z,0.15
2023-02-05T05:13:57.946Z,0.30
2023-02-05T05:16:24.548Z,0.27
2023-02-05T05:18:52.399Z,0.25
2023-02-05T05:21:19.009Z,0.30
2023-02-05T05:23:45.666Z,0.41
2023-02-05T05:26:12.723Z,0.40
2023-02-05T05:28:39.926Z,0.39
2023-02-05T05:31:11.909Z,0.30
2023-02-05T05:33:38.602Z,0.24
2023-02-05T05:36:06.327Z,0.21
2023-02-05T05:38:32.923Z,0.23
2023-02-05T05:41:18.276Z,0.32
2023-02-05T05:43:47.771Z,0.24
2023-02-05T05:46:23.703Z,-0.17
2023-02-05T05:48:58.803Z,-0.28
2023-02-05T05:51:27.415Z,-0.63
2023-02-05T05:53:54.894Z,-0.44
2023-02-05T05:56:22.305Z,-0.26
2023-02-05T05:58:49.296Z,-0.11
2023-02-05T06:01:17.835Z,-0.22
2023-02-05T06:03:44.565Z,-0.23
2023-02-05T06:06:12.641Z,-0.16
2023-02-05T06:08:39.451Z,-0.19
2023-02-05T06:11:06.790Z,-0.35
2023-02-05T06:13:34.804Z,-0.46
2023-02-05T06:16:01.479Z,-0.41
2023-02-05T06:18:28.147Z,-0.54
2023-02-05T06:20:54.715Z,-0.51
2023-02-05T06:23:21.488Z,-0.51
2023-02-05T06:25:48.263Z,-0.60
2023-02-05T06:28:14.936Z,-0.87
2023-02-05T06:30:41.621Z,-0.81
2023-02-05T06:33:08.200Z,-0.66
2023-02-05T06:35:35.102Z,-0.71
2023-02-05T06:38:01.885Z,-0.60
2023-02-05T06:40:28.670Z,-0.78
2023-02-05T06:42:55.359Z,-0.84
2023-02-05T06:45:22.444Z,-0.89
2023-02-05T06:47:49.959Z,-0.89
2023-02-05T06:50:16.671Z,-0.92
2023-02-05T06:52:43.282Z,-0.93
2023-02-05T06:55:09.848Z,-0.93
2023-02-05T06:57:36.808Z,-0.90
2023-02-05T07:00:07.539Z,-0.76
2023-02-05T07:02:34.396Z,-0.95
2023-02-05T07:05:01.020Z,-0.92
2023-02-05T07:07:28.335Z,-0.94
2023-02-05T07:09:54.978Z,-1.02
2023-02-05T07:12:21.868Z,-0.80
2023-02-05T07:14:48.494Z,-0.89
2023-02-05T07:17:15.200Z,-0.97
2023-02-05T07:19:41.820Z,-0.86
2023-02-05T07:22:09.078Z,-0.75
2023-02-05T07:24:35.628Z,-0.60
2023-02-05T07:27:02.207Z,-0.50
2023-02-05T07:29:28.864Z,-0.41
2023-02-05T07:31:55.455Z,-0.41
2023-02-05T07:34:22.337Z,-0.30
2023-02-05T07:36:53.238Z,-0.17
2023-02-05T07:39:20.246Z,-0.12
2023-02-05T07:41:47.162Z,-0.19
2023-02-05T07:44:13.829Z,-0.08
2023-02-05T07:46:40.486Z,0.05
2023-02-05T07:49:07.178Z,0.16
2023-02-05T07:51:35.342Z,0.18
2023-02-05T07:54:09.916Z,0.37
2023-02-05T07:56:36.680Z,0.52
2023-02-05T07:59:03.933Z,0.41
2023-02-05T08:01:30.628Z,0.34
2023-02-05T08:03:57.278Z,0.65
2023-02-05T08:06:23.932Z,0.79
2023-02-05T08:08:50.600Z,0.85
2023-02-05T08:11:18.266Z,0.86
2023-02-05T08:13:45.949Z,0.85
2023-02-05T08:16:15.807Z,0.82
2023-02-05T08:18:43.639Z,1.01
2023-02-05T08:21:10.275Z,0.84
2023-02-05T08:23:36.851Z,0.97
2023-02-05T08:26:03.536Z,1.17
2023-02-05T08:28:30.200Z,1.13
2023-02-05T08:30:56.931Z,0.75
2023-02-05T08:33:23.668Z,0.79
2023-02-05T08:35:50.262Z,0.87
2023-02-05T08:38:17.065Z,1.18
2023-02-05T08:40:43.794Z,1.33
2023-02-05T08:43:10.421Z,1.19
2023-02-05T08:45:37.647Z,1.17
2023-02-05T08:48:04.503Z,1.45
2023-02-05T08:50:31.190Z,1.53
2023-02-05T08:52:57.786Z,1.76
2023-02-05T08:55:24.417Z,1.84
2023-02-05T08:57:51.001Z,1.92
2023-02-05T09:00:17.963Z,2.04
2023-02-05T09:02:44.831Z,1.85
2023-02-05T09:05:11.584Z,1.85
2023-02-05T09:07:42.020Z,1.89
2023-02-05T09:10:10.624Z,2.00
2023-02-05T09:12:37.384Z,2.06
2023-02-05T09:15:04.988Z,1.85
2023-02-05T09:17:31.573Z,1.77
2023-02-05T09:19:58.341Z,1.69
2023-02-05T09:22:24.933Z,1.84
2023-02-05T09:24:51.635Z,1.82
2023-02-05T09:27:18.220Z,1.95
2023-02-05T09:29:45.063Z,2.18
2023-02-05T09:32:11.664Z,2.24
2023-02-05T09:34:38.237Z,2.01
2023-02-05T09:37:04.869Z,1.89
2023-02-05T09:40:17.299Z,1.58
2023-02-05T09:42:53.298Z,1.63
2023-02-05T09:45:38.467Z,1.66
2023-02-05T09:48:38.433Z,1.76
2023-02-05T09:51:10.046Z,1.82
2023-02-05T09:53:41.814Z,1.72
2023-02-05T09:56:10.025Z,1.71
2023-02-05T09:58:42.505Z,2.17
2023-02-05T10:01:55.141Z,2.48
2023-02-05T10:04:22.013Z,2.65
2023-02-05T10:07:14.755Z,2.77
2023-02-05T10:09:59.965Z,2.81
2023-02-05T10:12:44.598Z,3.16
2023-02-05T10:15:43.047Z,3.10
2023-02-05T10:18:09.632Z,2.75
2023-02-05T10:20:45.301Z,2.84
2023-02-05T10:23:15.948Z,3.07
2023-02-05T10:26:11.511Z,2.85
2023-02-05T10:28:51.268Z,2.82
2023-02-05T10:31:42.251Z,3.22
2023-02-05T10:34:26.697Z,3.34
2023-02-05T10:36:54.364Z,3.68
2023-02-05T10:39:33.693Z,4.30
2023-02-05T10:42:24.857Z,4.13
2023-02-05T10:45:03.656Z,4.43
2023-02-05T10:47:43.583Z,4.72
2023-02-05T10:50:25.531Z,4.75
2023-02-05T10:52:52.134Z,4.88
2023-02-05T10:55:19.665Z,4.69
2023-02-05T10:57:46.234Z,4.48
2023-02-05T11:00:20.444Z,4.82
2023-02-05T11:02:54.841Z,4.93
2023-02-05T11:05:24.395Z,5.01
2023-02-05T11:07:53.396Z,5.16
2023-02-05T11:10:24.144Z,5.69
2023-02-05T11:12:58.333Z,6.34
2023-02-05T11:15:27.856Z,6.78
2023-02-05T11:17:58.292Z,7.71
2023-02-05T11:20:34.474Z,7.45
2023-02-05T11:23:22.407Z,8.35
2023-02-05T11:25:50.368Z,9.73
2023-02-05T11:28:24.477Z,10.51
2023-02-05T11:30:52.080Z,10.69
2023-02-05T11:33:22.158Z,10.77
2023-02-05T11:36:05.023Z,11.06
2023-02-05T11:38:45.355Z,9.37
2023-02-05T11:41:15.592Z,9.50
2023-02-05T11:43:51.145Z,8.78
2023-02-05T11:46:25.766Z,9.51
2023-02-05T11:49:01.362Z,10.85
2023-02-05T11:51:50.301Z,10.92
2023-02-05T11:54:21.695Z,11.38
2023-02-05T11:57:19.696Z,13.01
2023-02-05T12:00:00.983Z,13.23
2023-02-05T12:02:30.541Z,14.27
2023-02-05T12:05:09.137Z,11.27
2023-02-05T12:07:43.679Z,9.56
2023-02-05T12:10:30.463Z,9.40
2023-02-05T12:13:09.028Z,10.09
2023-02-05T12:15:45.238Z,11.41
2023-02-05T12:18:22.211Z,11.59
2023-02-05T12:21:26.232Z,12.27
2023-02-05T12:24:20.467Z,12.28
2023-02-05T12:26:51.404Z,11.93
2023-02-05T12:29:42.624Z,10.95
2023-02-05T12:32:37.892Z,10.12
2023-02-05T12:35:28.760Z,8.49
2023-02-05T12:38:04.332Z,8.66
2023-02-05T12:40:45.841Z,8.58
2023-02-05T12:43:40.180Z,8.52
2023-02-05T12:46:25.697Z,7.33
2023-02-05T12:49:05.669Z,6.80
2023-02-05T12:51:55.992Z,6.62
2023-02-05T12:54:28.735Z,6.65
2023-02-05T12:57:00.380Z,6.52
2023-02-05T12:59:43.906Z,6.70
2023-02-05T13:02:21.230Z,6.92
2023-02-05T13:05:26.577Z,7.63
2023-02-05T13:07:59.823Z,8.09
2023-02-05T13:10:46.503Z,8.20
2023-02-05T13:13:21.025Z,7.78
2023-02-05T13:16:00.005Z,7.69
2023-02-05T13:18:33.175Z,7.85
2023-02-05T13:21:21.389Z,8.41
2023-02-05T13:24:07.603Z,8.79
2023-02-05T13:27:13.377Z,9.24
2023-02-05T13:29:51.434Z,9.25
2023-02-05T13:32:23.493Z,9.47
2023-02-05T13:34:54.717Z,9.55
2023-02-05T13:37:47.445Z,9.70
2023-02-05T13:40:52.583Z,9.46
2023-02-05T13:43:52.038Z,9.68
2023-02-05T13:46:32.643Z,9.67
2023-02-05T13:49:02.032Z,8.68
2023-02-05T13:51:50.332Z,7.65
2023-02-05T13:54:48.814Z,6.89
2023-02-05T13:57:41.747Z,6.22
2023-02-05T14:00:14.399Z,5.51
2023-02-05T14:02:45.292Z,5.47
2023-02-05T14:05:13.765Z,5.24
2023-02-05T14:07:49.672Z,4.92
2023-02-05T14:10:32.053Z,5.32
2023-02-05T14:13:25.851Z,4.55
2023-02-05T14:15:57.524Z,4.25
2023-02-05T14:18:45.211Z,4.62
2023-02-05T14:21:30.162Z,5.13
2023-02-05T14:24:26.541Z,5.31
2023-02-05T14:27:00.370Z,5.37
2023-02-05T14:29:48.128Z,5.19
2023-02-05T14:32:30.023Z,5.38
2023-02-05T14:35:01.829Z,5.01
2023-02-05T14:37:40.442Z,5.34
2023-02-05T14:40:23.412Z,5.91
2023-02-05T14:42:57.072Z,5.91
2023-02-05T14:45:29.355Z,5.98
2023-02-05T14:47:57.484Z,6.06
2023-02-05T14:50:27.945Z,6.20
2023-02-05T14:53:01.545Z,6.25
2023-02-05T14:55:36.148Z,6.32
2023-02-05T14:58:09.497Z,6.29
2023-02-05T15:00:36.029Z,6.55
2023-02-05T15:03:05.423Z,6.57
2023-02-05T15:05:35.176Z,6.12
2023-02-05T15:08:24.141Z,6.17
2023-02-05T15:10:57.280Z,6.31
2023-02-05T15:13:27.093Z,6.12
2023-02-05T15:16:12.048Z,5.79
2023-02-05T15:18:41.452Z,5.97
2023-02-05T15:21:15.659Z,5.99
2023-02-05T15:23:46.354Z,5.97
2023-02-05T15:26:36.590Z,6.08
2023-02-05T15:29:20.652Z,5.89
2023-02-05T15:31:54.923Z,6.12
2023-02-05T15:35:02.320Z,6.06
2023-02-05T15:37:33.427Z,5.90
2023-02-05T15:40:10.289Z,5.75
2023-02-05T15:42:45.847Z,5.53
2023-02-05T15:45:25.979Z,5.52
2023-02-05T15:48:14.268Z,5.20
2023-02-05T15:50:45.519Z,5.27
2023-02-05T15:53:31.056Z,5.22
2023-02-05T15:55:58.141Z,5.32
2023-02-05T15:58:26.784Z,5.07
2023-02-05T16:00:53.820Z,5.17
2023-02-05T16:03:27.616Z,5.15
2023-02-05T16:05:54.272Z,5.03
2023-02-05T16:08:23.458Z,5.05
2023-02-05T16:10:57.720Z,5.03
2023-02-05T16:13:28.495Z,5.21
2023-02-05T16:16:01.071Z,5.45
2023-02-05T16:18:40.739Z,5.55
2023-02-05T16:21:28.159Z,5.48
2023-02-05T16:24:05.819Z,5.04
2023-02-05T16:27:08.475Z,5.15
2023-02-05T16:29:47.982Z,4.95
2023-02-05T16:32:25.015Z,4.52
2023-02-05T16:34:51.965Z,4.91
2023-02-05T16:37:19.860Z,5.12
2023-02-05T16:39:54.011Z,5.13
2023-02-05T16:42:26.658Z,4.48
2023-02-05T16:45:19.991Z,4.83
2023-02-05T16:48:15.514Z,4.94
2023-02-05T16:50:44.309Z,4.75
2023-02-05T16:53:26.535Z,4.81
2023-02-05T16:56:03.055Z,4.79
2023-02-05T16:58:38.015Z,4.58
2023-02-05T17:01:04.923Z,4.63
2023-02-05T17:03:37.724Z,4.34
2023-02-05T17:06:18.194Z,4.30
2023-02-05T17:08:52.531Z,4.31
2023-02-05T17:11:42.411Z,4.09
2023-02-05T17:14:29.429Z,3.90
2023-02-05T17:17:15.559Z,3.37
2023-02-05T17:19:42.171Z,3.17
2023-02-05T17:22:14.676Z,3.07
2023-02-05T17:24:42.445Z,2.50
2023-02-05T17:27:17.265Z,2.29
2023-02-05T17:29:44.212Z,2.20
2023-02-05T17:32:15.876Z,2.01
2023-02-05T17:34:43.486Z,1.96
2023-02-05T17:37:10.162Z,1.92
2023-02-05T17:39:36.762Z,1.69
2023-02-05T17:42:03.646Z,1.79
2023-02-05T17:44:31.344Z,1.85
2023-02-05T17:46:58.398Z,1.87
2023-02-05T17:49:24.961Z,1.72
2023-02-05T17:51:51.570Z,1.54
2023-02-05T17:54:22.962Z,1.19
2023-02-05T17:56:50.213Z,1.37
2023-02-05T17:59:22.071Z,1.11
2023-02-05T18:01:49.691Z,1.32
2023-02-05T18:04:18.649Z,1.07
2023-02-05T18:06:48.541Z,0.97
2023-02-05T18:09:16.388Z,0.78
2023-02-05T18:11:43.242Z,0.76
2023-02-05T18:14:10.162Z,0.78
2023-02-05T18:16:37.347Z,0.80
2023-02-05T18:19:04.039Z,0.73
2023-02-05T18:21:30.724Z,0.83
2023-02-05T18:23:57.377Z,0.93
2023-02-05T18:26:25.917Z,1.08
2023-02-05T18:28:52.768Z,1.06
2023-02-05T18:31:19.648Z,1.22
2023-02-05T18:33:47.889Z,1.32
2023-02-05T18:36:15.643Z,1.69
2023-02-05T18:38:43.613Z,1.57
2023-02-05T18:41:15.968Z,1.68
2023-02-05T18:43:43.285Z,1.58
2023-02-05T18:46:16.196Z,1.76
2023-02-05T18:48:45.717Z,1.41
2023-02-05T18:51:14.737Z,1.31
2023-02-05T18:53:43.237Z,1.34
2023-02-05T18:56:14.101Z,1.67
2023-02-05T18:58:41.840Z,1.75
2023-02-05T19:01:13.176Z,1.60
2023-02-05T19:03:42.150Z,1.86
2023-02-05T19:06:11.058Z,1.71
2023-02-05T19:08:38.572Z,1.77
2023-02-05T19:11:07.260Z,2.01
2023-02-05T19:13:34.110Z,1.83
2023-02-05T19:16:12.765Z,2.00
2023-02-05T19:18:40.616Z,2.03
2023-02-05T19:21:10.770Z,1.77
2023-02-05T19:23:38.096Z,1.72
2023-02-05T19:26:07.372Z,1.90
2023-02-05T19:28:34.238Z,1.81
2023-02-05T19:31:05.563Z,1.93
2023-02-05T19:33:33.350Z,1.94
2023-02-05T19:36:01.347Z,1.91
2023-02-05T19:38:28.452Z,1.98
2023-02-05T19:40:55.073Z,1.92
2023-02-05T19:43:22.096Z,1.89
2023-02-05T19:45:48.912Z,1.89
2023-02-05T19:48:15.891Z,1.85
2023-02-05T19:50:42.863Z,1.83
2023-02-05T19:53:10.137Z,1.91
2023-02-05T19:55:37.100Z,1.97
2023-02-05T19:58:03.846Z,1.98
2023-02-05T20:00:30.499Z,1.94
2023-02-05T20:02:57.347Z,1.48
2023-02-05T20:05:24.381Z,1.27
2023-02-05T20:07:51.987Z,1.31
2023-02-05T20:10:19.127Z,1.36
2023-02-05T20:12:48.048Z,1.13
2023-02-05T20:15:16.491Z,1.16
2023-02-05T20:17:43.820Z,0.49
2023-02-05T20:20:22.205Z,0.67
2023-02-05T20:22:54.947Z,0.46
2023-02-05T20:25:21.997Z,0.39
2023-02-05T20:27:48.642Z,0.12
2023-02-05T20:30:34.229Z,-0.07
2023-02-05T20:33:01.050Z,-0.17
2023-02-05T20:35:27.636Z,0.18
2023-02-05T20:37:54.217Z,0.37
2023-02-05T20:40:20.818Z,0.16
2023-02-05T20:42:47.421Z,0.43
2023-02-05T20:45:14.080Z,0.46
2023-02-05T20:47:40.692Z,0.24
2023-02-05T20:50:08.424Z,0.21
2023-02-05T20:52:35.052Z,0.30
2023-02-05T20:55:01.673Z,0.29
2023-02-05T20:57:28.584Z,0.32
2023-02-05T20:59:55.601Z,0.36
2023-02-05T21:02:23.697Z,0.37
2023-02-05T21:04:52.464Z,0.28
2023-02-05T21:07:19.326Z,0.46
2023-02-05T21:09:45.900Z,0.48
2023-02-05T21:12:12.668Z,0.43
2023-02-05T21:14:39.321Z,0.39
2023-02-05T21:17:09.279Z,0.36
2023-02-05T21:19:35.887Z,0.50
2023-02-05T21:22:02.524Z,0.39
2023-02-05T21:24:29.206Z,0.43
2023-02-05T21:26:56.069Z,0.45
2023-02-05T21:29:22.668Z,0.42
2023-02-05T21:31:53.224Z,0.39
2023-02-05T21:34:25.537Z,0.33
2023-02-05T21:36:54.067Z,0.36
2023-02-05T21:39:21.467Z,0.17
2023-02-05T21:41:50.686Z,0.14
2023-02-05T21:44:17.510Z,0.09
2023-02-05T21:46:44.083Z,0.14
2023-02-05T21:49:11.835Z,0.02
2023-02-05T21:51:38.467Z,0.06
2023-02-05T21:54:06.242Z,0.10
2023-02-05T21:56:35.527Z,-0.02
2023-02-05T21:59:02.325Z,0.07
2023-02-05T22:01:31.271Z,0.18
2023-02-05T22:04:04.417Z,-0.13
2023-02-05T22:06:34.100Z,-0.31
2023-02-05T22:09:03.868Z,-0.51
2023-02-05T22:11:31.088Z,-0.48
2023-02-05T22:13:57.758Z,-0.20
2023-02-05T22:16:29.846Z,-0.31
2023-02-05T22:18:57.613Z,-0.38
2023-02-05T22:21:27.122Z,-0.25
2023-02-05T22:23:56.368Z,-0.32
2023-02-05T22:26:49.751Z,-0.25
2023-02-05T22:29:19.694Z,-0.42
2023-02-05T22:31:50.612Z,-0.38
2023-02-05T22:34:17.504Z,-0.46
2023-02-05T22:36:44.193Z,-0.72
2023-02-05T22:39:10.819Z,-0.79
2023-02-05T22:41:39.937Z,-0.80
2023-02-05T22:44:08.242Z,-0.68
2023-02-05T22:46:38.562Z,-0.69
2023-02-05T22:49:05.266Z,-0.63
2023-02-05T22:51:37.855Z,-0.94
2023-02-05T22:54:05.921Z,-0.89
2023-02-05T22:56:33.424Z,-0.64
2023-02-05T22:59:02.781Z,-0.78
2023-02-05T23:01:33.639Z,-0.69
2023-02-05T23:04:02.167Z,-0.91
2023-02-05T23:06:31.341Z,-1.00
2023-02-05T23:09:03.880Z,-0.92
2023-02-05T23:11:32.039Z,-0.78
2023-02-05T23:14:00.190Z,-0.68
2023-02-05T23:16:29.914Z,-0.63
2023-02-05T23:19:02.302Z,-0.66
2023-02-05T23:21:31.850Z,-0.86
2023-02-05T23:23:58.540Z,-0.75
2023-02-05T23:26:27.680Z,-0.76
2023-02-05T23:28:55.815Z,-0.70
2023-02-05T23:31:23.616Z,-0.86
2023-02-05T23:33:51.091Z,-0.78
2023-02-05T23:36:18.301Z,-0.91
2023-02-05T23:38:44.892Z,-1.55
2023-02-05T23:41:12.347Z,-1.68
2023-02-05T23:43:39.938Z,-1.76
2023-02-05T23:46:07.602Z,-1.58
2023-02-05T23:48:34.574Z,-1.45
2023-02-05T23:51:01.473Z,-1.54
2023-02-05T23:53:28.138Z,-1.46
2023-02-05T23:55:54.760Z,-1.48
2023-02-05T23:58:26.092Z,-1.38
